Time;durP1;ratioP1;P1;durP2;ratioP2;P2;SDS_P1;SDS_P2;PMS_P1;PMS_P2;Temp;Humidity;BMP_temperature;BMP_pressure;BME280_temperature;BME280_humidity;BME280_pressure;Samples;Min_cycle;Max_cycle;Signal;HPM_P1;HPM_P2
2022/08/22 00:01:04;;;;;;;6.73;4.63;;;24.50;54.70;;;;;;5037537;28;20521;-72
2022/08/22 00:03:53;;;;;;;5.90;4.60;;;24.50;54.80;;;;;;5039579;28;20434;-71
2022/08/22 00:06:27;;;;;;;7.10;4.80;;;24.50;54.90;;;;;;5036003;28;20530;-72
2022/08/22 00:09:23;;;;;;;9.40;4.83;;;24.50;55.00;;;;;;5041192;28;20441;-71
2022/08/22 00:11:54;;;;;;;6.60;5.00;;;24.50;54.90;;;;;;5034346;28;20465;-72
2022/08/22 00:14:23;;;;;;;5.30;4.50;;;24.40;55.10;;;;;;5035607;28;20430;-71
2022/08/22 00:17:26;;;;;;;8.33;5.00;;;24.50;55.40;;;;;;5029405;28;20434;-72
2022/08/22 00:20:07;;;;;;;11.03;4.50;;;24.40;55.40;;;;;;5037087;28;20430;-73
2022/08/22 00:22:45;;;;;;;7.80;4.90;;;24.50;55.40;;;;;;5030367;28;20449;-73
2022/08/22 00:25:41;;;;;;;5.60;4.50;;;24.40;55.50;;;;;;5035256;28;20519;-73
2022/08/22 00:28:28;;;;;;;5.50;4.37;;;24.30;55.70;;;;;;5031755;28;20437;-74
2022/08/22 00:31:15;;;;;;;5.30;4.60;;;24.20;56.10;;;;;;5032846;28;20459;-73
2022/08/22 00:34:07;;;;;;;5.83;4.60;;;24.10;56.20;;;;;;5035578;28;20438;-74
2022/08/22 00:36:42;;;;;;;4.93;4.43;;;24.10;56.30;;;;;;5034649;28;20521;-73
2022/08/22 00:39:13;;;;;;;5.80;4.67;;;24.00;56.70;;;;;;5035172;28;20918;-74
2022/08/22 00:42:00;;;;;;;5.37;4.77;;;23.90;57.40;;;;;;5028617;28;21009;-74
2022/08/22 00:44:35;;;;;;;5.37;4.70;;;23.90;57.90;;;;;;5032356;28;21165;-73
2022/08/22 00:47:09;;;;;;;5.50;4.70;;;23.80;57.90;;;;;;5027948;28;20446;-73
2022/08/22 00:50:01;;;;;;;5.13;4.63;;;23.80;57.70;;;;;;5031569;28;20484;-73
2022/08/22 00:52:57;;;;;;;14.43;5.37;;;23.70;57.70;;;;;;5034886;28;20469;-72
2022/08/22 00:55:52;;;;;;;5.23;4.30;;;23.70;58.00;;;;;;5026148;28;20469;-72
2022/08/22 00:59:02;;;;;;;5.43;4.60;;;23.60;57.90;;;;;;5029511;28;20550;-72
2022/08/22 01:01:35;;;;;;;6.87;4.63;;;23.60;58.00;;;;;;5033048;28;20511;-74
2022/08/22 01:04:16;;;;;;;6.10;4.33;;;23.60;57.80;;;;;;5033382;28;20456;-73
2022/08/22 01:07:09;;;;;;;9.30;4.27;;;23.60;57.80;;;;;;5029497;28;20518;-72
2022/08/22 01:09:59;;;;;;;8.97;4.87;;;23.60;57.90;;;;;;5032818;28;20452;-72
2022/08/22 01:12:54;;;;;;;5.80;4.57;;;23.50;57.90;;;;;;5026257;28;20482;-73
2022/08/22 01:15:25;;;;;;;7.00;4.87;;;23.50;57.80;;;;;;5027165;28;20447;-72
2022/08/22 01:18:35;;;;;;;6.33;4.50;;;23.50;58.00;;;;;;5032913;28;20425;-73
2022/08/22 01:21:27;;;;;;;5.37;4.10;;;23.50;57.90;;;;;;5027469;28;21029;-73
2022/08/22 01:24:11;;;;;;;5.30;4.47;;;23.50;58.10;;;;;;5031650;28;20470;-72
2022/08/22 01:26:57;;;;;;;4.93;4.47;;;23.40;58.00;;;;;;5032554;28;20945;-72
2022/08/22 01:29:56;;;;;;;4.90;4.23;;;23.40;58.30;;;;;;5030560;28;21015;-72
2022/08/22 01:32:57;;;;;;;5.83;4.77;;;23.30;58.80;;;;;;5035287;28;20563;-73
2022/08/22 01:35:47;;;;;;;5.30;4.40;;;23.30;58.80;;;;;;5030954;28;20481;-71
2022/08/22 01:38:12;;;;;;;8.07;4.90;;;23.20;59.00;;;;;;5034898;28;20450;-72
2022/08/22 01:40:59;;;;;;;5.30;4.13;;;23.20;59.10;;;;;;5034329;28;20840;-72
2022/08/22 01:43:34;;;;;;;5.33;4.80;;;23.20;59.30;;;;;;5030585;28;20180;-73
2022/08/22 01:46:00;;;;;;;6.07;4.80;;;23.20;59.30;;;;;;5030111;28;20831;-72
2022/08/22 01:49:00;;;;;;;5.10;4.60;;;23.10;59.40;;;;;;5030815;28;20449;-72
2022/08/22 01:51:39;;;;;;;5.03;4.53;;;23.10;60.00;;;;;;5026431;28;20227;-74
2022/08/22 01:54:12;;;;;;;5.00;4.20;;;23.10;59.50;;;;;;5029205;28;20949;-73
2022/08/22 01:56:44;;;;;;;4.40;4.00;;;23.20;59.60;;;;;;5029922;28;21272;-73
2022/08/22 01:59:30;;;;;;;4.93;4.47;;;23.20;59.60;;;;;;5031846;28;20439;-72
2022/08/22 02:01:58;;;;;;;6.10;4.57;;;23.20;59.60;;;;;;5027395;28;20445;-72
2022/08/22 02:04:59;;;;;;;5.23;4.20;;;23.20;59.70;;;;;;5033079;28;20453;-72
2022/08/22 02:08:01;;;;;;;5.67;5.03;;;23.10;59.80;;;;;;5029300;28;20450;-72
2022/08/22 02:10:49;;;;;;;6.50;5.13;;;23.10;59.90;;;;;;5029461;28;20430;-72
2022/08/22 02:13:45;;;;;;;5.10;4.60;;;23.10;60.00;;;;;;5030269;28;20505;-72
2022/08/22 02:16:23;;;;;;;7.20;4.33;;;23.10;60.30;;;;;;5029875;28;20455;-73
2022/08/22 02:19:16;;;;;;;6.77;4.93;;;23.10;60.50;;;;;;5031390;28;20445;-73
2022/08/22 02:22:00;;;;;;;7.80;4.70;;;23.10;60.20;;;;;;5033860;28;20459;-73
2022/08/22 02:24:47;;;;;;;5.53;4.50;;;23.10;60.00;;;;;;5035170;28;20431;-73
2022/08/22 02:27:37;;;;;;;5.13;4.57;;;23.10;60.10;;;;;;5026144;28;20452;-74
2022/08/22 02:30:11;;;;;;;5.40;4.80;;;23.10;60.40;;;;;;5027582;28;20435;-72
2022/08/22 02:32:40;;;;;;;6.93;5.10;;;23.10;60.70;;;;;;5029423;28;20469;-73
2022/08/22 02:35:17;;;;;;;7.40;4.77;;;23.00;60.70;;;;;;5031111;28;20851;-74
2022/08/22 02:38:01;;;;;;;6.07;4.90;;;23.00;60.90;;;;;;5022899;28;20558;-72
2022/08/22 02:40:42;;;;;;;6.00;4.47;;;23.00;60.90;;;;;;5026083;28;20427;-71
2022/08/22 02:43:19;;;;;;;6.20;4.47;;;23.00;60.90;;;;;;5030650;28;21001;-71
2022/08/22 02:46:38;;;;;;;5.23;4.20;;;23.00;61.10;;;;;;5033067;28;20450;-71
2022/08/22 02:49:20;;;;;;;8.40;5.17;;;22.90;61.40;;;;;;5026376;28;20446;-71
2022/08/22 02:52:11;;;;;;;7.50;4.87;;;22.90;61.50;;;;;;5029945;28;20462;-72
2022/08/22 02:55:11;;;;;;;5.47;4.93;;;22.90;61.50;;;;;;5029192;28;20458;-71
2022/08/22 02:57:43;;;;;;;4.90;4.23;;;22.90;61.70;;;;;;5037455;28;20422;-73
2022/08/22 03:00:20;;;;;;;6.00;5.00;;;22.80;61.60;;;;;;5032431;28;20534;-72
2022/08/22 03:02:55;;;;;;;5.40;4.87;;;22.80;61.70;;;;;;5029638;28;21306;-73
2022/08/22 03:05:29;;;;;;;5.87;4.37;;;22.70;61.80;;;;;;5033606;28;21179;-72
2022/08/22 03:08:13;;;;;;;5.23;4.63;;;22.60;61.80;;;;;;5032198;28;20448;-72
2022/08/22 03:10:55;;;;;;;5.40;4.27;;;22.60;62.10;;;;;;5027299;28;20442;-72
2022/08/22 03:13:54;;;;;;;6.53;4.47;;;22.50;62.30;;;;;;5028895;28;20430;-74
2022/08/22 03:16:37;;;;;;;5.93;4.50;;;22.50;62.60;;;;;;5033012;28;20748;-74
2022/08/22 03:19:39;;;;;;;9.53;5.13;;;22.40;62.70;;;;;;5031867;28;20446;-73
2022/08/22 03:22:14;;;;;;;7.20;4.93;;;22.40;62.90;;;;;;5037603;28;20449;-74
2022/08/22 03:25:07;;;;;;;7.30;5.40;;;22.30;62.90;;;;;;5032079;28;20457;-73
2022/08/22 03:27:54;;;;;;;4.97;4.47;;;22.30;63.20;;;;;;5034707;28;21347;-73
2022/08/22 03:30:42;;;;;;;7.00;4.70;;;22.20;64.30;;;;;;5028279;28;20447;-72
2022/08/22 03:33:16;;;;;;;5.47;4.10;;;22.20;63.70;;;;;;5032032;28;20442;-74
2022/08/22 03:35:45;;;;;;;5.40;4.57;;;22.20;63.90;;;;;;5037673;28;20998;-71
2022/08/22 03:38:20;;;;;;;6.17;4.90;;;22.10;64.00;;;;;;5035294;28;20440;-72
2022/08/22 03:41:07;;;;;;;7.33;5.63;;;22.10;64.60;;;;;;5033857;28;20424;-74
2022/08/22 03:43:57;;;;;;;5.63;4.37;;;22.10;64.80;;;;;;5036614;28;20960;-73
2022/08/22 03:46:44;;;;;;;5.73;4.60;;;22.00;65.00;;;;;;5028995;28;20458;-73
2022/08/22 03:49:38;;;;;;;7.37;4.40;;;22.00;65.20;;;;;;5027416;28;20457;-73
2022/08/22 03:52:04;;;;;;;5.50;5.00;;;22.00;65.50;;;;;;5036485;28;20581;-73
2022/08/22 03:54:58;;;;;;;5.40;4.63;;;21.90;65.80;;;;;;5032296;28;20517;-73
2022/08/22 03:57:23;;;;;;;6.10;4.63;;;21.80;66.10;;;;;;5031001;28;20262;-73
2022/08/22 04:00:37;;;;;;;6.20;4.50;;;21.80;66.00;;;;;;5032105;28;21082;-72
2022/08/22 04:03:39;;;;;;;8.30;5.17;;;21.80;66.30;;;;;;5044800;28;20222;-73
2022/08/22 04:06:38;;;;;;;7.30;5.87;;;21.80;66.60;;;;;;5036040;28;20479;-74
2022/08/22 04:09:33;;;;;;;6.00;4.97;;;21.70;66.70;;;;;;5035486;28;20985;-74
2022/08/22 04:12:21;;;;;;;8.13;5.27;;;21.70;66.60;;;;;;5033404;28;20976;-74
2022/08/22 04:15:05;;;;;;;6.20;4.97;;;21.60;66.90;;;;;;5034068;28;20450;-74
2022/08/22 04:17:49;;;;;;;11.80;5.80;;;21.60;67.10;;;;;;5031334;28;20430;-73
2022/08/22 04:20:42;;;;;;;9.73;6.33;;;21.50;67.00;;;;;;5029794;28;20441;-72
2022/08/22 04:23:35;;;;;;;6.00;5.40;;;21.50;67.10;;;;;;5025291;28;20427;-72
2022/08/22 04:26:08;;;;;;;6.10;5.17;;;21.50;67.50;;;;;;5028757;28;20469;-73
2022/08/22 04:28:38;;;;;;;6.33;4.97;;;21.50;67.50;;;;;;5031543;28;20431;-74
2022/08/22 04:31:10;;;;;;;10.73;6.80;;;21.50;67.50;;;;;;5029205;28;20865;-73
2022/08/22 04:33:58;;;;;;;4.63;4.23;;;21.50;67.60;;;;;;5031729;28;20936;-72
2022/08/22 04:36:29;;;;;;;8.50;5.00;;;21.40;67.60;;;;;;5030150;28;20802;-72
2022/08/22 04:39:33;;;;;;;8.87;5.50;;;21.50;67.70;;;;;;5028921;28;20896;-74
2022/08/22 04:42:05;;;;;;;7.80;5.30;;;21.50;67.60;;;;;;5027375;28;20458;-74
2022/08/22 04:44:35;;;;;;;6.47;5.77;;;21.40;67.50;;;;;;5030633;28;20448;-73
2022/08/22 04:47:30;;;;;;;7.17;5.17;;;21.40;67.60;;;;;;5027393;28;21249;-74
2022/08/22 04:50:06;;;;;;;6.97;5.27;;;21.40;67.90;;;;;;5033703;28;20816;-74
2022/08/22 04:52:45;;;;;;;5.93;4.80;;;21.40;68.00;;;;;;5031442;28;20466;-74
2022/08/22 04:55:29;;;;;;;8.00;5.10;;;21.40;68.00;;;;;;5029012;28;21185;-74
2022/08/22 04:58:22;;;;;;;6.17;5.03;;;21.40;68.10;;;;;;5026186;28;20461;-75
2022/08/22 05:00:53;;;;;;;6.77;5.23;;;21.40;68.30;;;;;;5028939;28;20817;-73
2022/08/22 05:03:22;;;;;;;6.20;5.03;;;21.40;68.30;;;;;;5027110;28;20427;-75
2022/08/22 05:05:49;;;;;;;6.00;5.40;;;21.40;68.60;;;;;;5030699;28;20462;-75
2022/08/22 05:08:21;;;;;;;5.63;5.07;;;21.40;68.60;;;;;;5027422;28;20458;-74
2022/08/22 05:10:49;;;;;;;8.17;6.33;;;21.40;68.40;;;;;;5029968;28;20470;-74
2022/08/22 05:13:29;;;;;;;7.57;5.57;;;21.40;68.50;;;;;;5028368;28;20994;-74
2022/08/22 05:16:04;;;;;;;7.77;5.57;;;21.40;68.60;;;;;;5028387;28;20659;-74
2022/08/22 05:18:34;;;;;;;11.37;5.60;;;21.40;68.70;;;;;;5025467;28;20677;-76
2022/08/22 05:21:04;;;;;;;7.27;5.03;;;21.40;68.80;;;;;;5030577;28;20439;-75
2022/08/22 05:23:57;;;;;;;5.30;4.80;;;21.40;69.30;;;;;;5030451;28;20450;-73
2022/08/22 05:26:24;;;;;;;5.50;4.90;;;21.40;69.40;;;;;;5027795;28;20557;-72
2022/08/22 05:28:55;;;;;;;9.57;5.70;;;21.40;69.40;;;;;;5027181;28;20942;-69
2022/08/22 05:31:26;;;;;;;7.17;5.47;;;21.40;69.50;;;;;;5028316;28;20979;-72
2022/08/22 05:34:01;;;;;;;7.33;5.07;;;21.40;69.50;;;;;;5027720;28;20435;-71
2022/08/22 05:36:31;;;;;;;7.20;4.90;;;21.30;69.60;;;;;;5028665;28;20449;-71
2022/08/22 05:39:06;;;;;;;5.93;5.33;;;21.30;69.70;;;;;;5028864;28;20488;-71
2022/08/22 05:41:36;;;;;;;7.53;5.10;;;21.30;69.90;;;;;;5027116;28;20881;-72
2022/08/22 05:44:02;;;;;;;6.67;5.27;;;21.30;70.00;;;;;;5031709;28;20521;-71
2022/08/22 05:46:41;;;;;;;9.03;6.10;;;21.20;70.00;;;;;;5028762;28;20450;-72
2022/08/22 05:49:33;;;;;;;10.67;4.70;;;21.30;70.20;;;;;;5022047;28;20609;-71
2022/08/22 05:52:46;;;;;;;5.77;4.80;;;21.30;70.20;;;;;;5032942;28;20486;-72
2022/08/22 05:55:40;;;;;;;7.20;5.30;;;21.30;70.10;;;;;;5031355;28;21066;-72
2022/08/22 05:58:33;;;;;;;9.30;5.03;;;21.30;70.20;;;;;;5026167;28;21546;-72
2022/08/22 06:01:45;;;;;;;6.00;5.40;;;21.30;70.20;;;;;;5025422;28;20509;-72
2022/08/22 06:04:18;;;;;;;6.63;4.60;;;21.30;70.40;;;;;;5030618;28;20434;-72
2022/08/22 06:06:55;;;;;;;6.00;4.93;;;21.40;70.70;;;;;;5029804;28;20456;-71
2022/08/22 06:09:41;;;;;;;10.00;4.73;;;21.40;70.60;;;;;;5025570;28;20548;-70
2022/08/22 06:12:13;;;;;;;5.93;4.90;;;21.40;70.70;;;;;;5025108;28;20466;-71
2022/08/22 06:15:09;;;;;;;7.07;5.20;;;21.50;70.60;;;;;;5024820;28;20442;-72
2022/08/22 06:17:41;;;;;;;6.80;4.73;;;21.50;70.70;;;;;;5025843;28;20435;-72
2022/08/22 06:20:09;;;;;;;5.87;5.27;;;21.50;70.50;;;;;;5022811;28;20432;-72
2022/08/22 06:22:44;;;;;;;6.70;6.00;;;21.50;70.50;;;;;;5025996;28;20438;-73
2022/08/22 06:25:17;;;;;;;8.30;5.70;;;21.60;70.50;;;;;;5029549;28;21257;-73
2022/08/22 06:27:45;;;;;;;6.30;4.97;;;21.60;70.10;;;;;;5030679;28;21037;-74
2022/08/22 06:30:14;;;;;;;8.17;4.63;;;21.60;69.70;;;;;;5029732;28;20880;-74
2022/08/22 06:32:44;;;;;;;6.90;5.27;;;21.70;69.60;;;;;;5035304;28;20904;-75
2022/08/22 06:35:19;;;;;;;6.60;4.90;;;21.70;69.40;;;;;;5022326;28;20459;-75
2022/08/22 06:37:47;;;;;;;6.67;5.27;;;21.70;69.10;;;;;;5026123;28;20521;-73
2022/08/22 06:40:16;;;;;;;11.50;8.30;;;21.80;69.10;;;;;;5033780;28;20980;-73
2022/08/22 06:42:49;;;;;;;7.93;5.93;;;21.80;68.80;;;;;;5026428;28;20433;-75
2022/08/22 06:45:29;;;;;;;5.70;4.97;;;21.90;69.10;;;;;;5031511;28;20450;-73
2022/08/22 06:48:04;;;;;;;6.87;5.33;;;21.90;69.10;;;;;;5033969;28;20500;-73
2022/08/22 06:50:38;;;;;;;10.20;4.97;;;22.00;69.40;;;;;;5037683;28;20429;-73
2022/08/22 06:53:20;;;;;;;6.07;5.13;;;22.00;69.10;;;;;;5034874;28;20488;-74
2022/08/22 06:55:53;;;;;;;6.10;4.70;;;22.10;69.40;;;;;;5035958;28;20469;-71
2022/08/22 06:58:28;;;;;;;7.00;5.30;;;22.10;69.40;;;;;;5033660;28;20801;-68
2022/08/22 07:00:57;;;;;;;7.00;5.20;;;22.20;68.90;;;;;;5028266;28;20438;-69
2022/08/22 07:03:35;;;;;;;6.83;4.90;;;22.20;68.80;;;;;;5029511;28;20470;-70
2022/08/22 07:06:02;;;;;;;5.83;5.03;;;22.30;68.50;;;;;;5037223;28;20964;-69
2022/08/22 07:08:33;;;;;;;6.13;4.73;;;22.30;68.10;;;;;;5033798;28;20996;-69
2022/08/22 07:11:22;;;;;;;5.67;4.33;;;22.30;67.90;;;;;;5033150;28;20462;-69
2022/08/22 07:13:53;;;;;;;6.27;5.00;;;22.40;68.00;;;;;;5022198;28;20979;-70
2022/08/22 07:16:32;;;;;;;7.53;5.00;;;22.40;67.90;;;;;;5026631;28;20470;-70
2022/08/22 07:18:58;;;;;;;7.10;4.90;;;22.50;67.70;;;;;;5034284;28;20434;-69
2022/08/22 07:21:28;;;;;;;9.90;5.20;;;22.60;67.60;;;;;;5032541;28;20515;-69
2022/08/22 07:23:54;;;;;;;7.93;5.70;;;22.60;67.20;;;;;;5031629;28;20449;-69
2022/08/22 07:26:44;;;;;;;5.10;4.50;;;22.70;66.90;;;;;;5029780;28;20442;-68
2022/08/22 07:29:33;;;;;;;6.67;4.90;;;22.70;66.30;;;;;;5030985;28;20442;-70
2022/08/22 07:32:05;;;;;;;5.77;4.30;;;22.80;66.10;;;;;;5029881;28;20533;-68
2022/08/22 07:34:35;;;;;;;6.23;5.00;;;22.90;65.90;;;;;;5031019;28;20422;-69
2022/08/22 07:37:22;;;;;;;5.47;4.97;;;23.00;65.80;;;;;;5031480;28;20435;-68
2022/08/22 07:39:53;;;;;;;6.30;4.90;;;23.10;65.70;;;;;;5024767;28;20435;-68
2022/08/22 07:42:32;;;;;;;6.13;5.20;;;23.30;65.40;;;;;;5025580;28;20436;-71
2022/08/22 07:45:13;;;;;;;9.83;4.70;;;23.40;64.60;;;;;;5027641;28;20466;-68
2022/08/22 07:47:59;;;;;;;6.80;4.97;;;23.50;64.40;;;;;;5027430;28;20434;-68
2022/08/22 07:50:29;;;;;;;10.00;5.50;;;23.60;64.80;;;;;;5030082;28;20485;-69
2022/08/22 07:53:20;;;;;;;7.80;5.73;;;23.70;64.50;;;;;;5027124;28;20466;-70
2022/08/22 07:55:47;;;;;;;5.47;4.97;;;23.80;64.00;;;;;;5023827;28;20462;-71
2022/08/22 07:58:14;;;;;;;7.00;4.67;;;23.80;63.70;;;;;;5028771;28;20443;-70
2022/08/22 08:00:44;;;;;;;6.93;5.13;;;23.90;63.30;;;;;;5028811;28;21168;-70
2022/08/22 08:03:11;;;;;;;6.60;5.20;;;24.00;63.30;;;;;;5024810;28;20560;-70
2022/08/22 08:05:40;;;;;;;5.93;4.90;;;24.00;63.30;;;;;;5030216;28;20548;-70
2022/08/22 08:08:20;;;;;;;8.50;5.77;;;24.10;62.90;;;;;;5025628;28;20553;-70
2022/08/22 08:10:47;;;;;;;5.10;4.60;;;24.20;63.00;;;;;;5028024;28;20434;-70
2022/08/22 08:13:20;;;;;;;7.43;4.87;;;24.20;62.70;;;;;;5029951;28;20476;-70
2022/08/22 08:15:46;;;;;;;5.67;4.87;;;24.30;62.40;;;;;;5028735;28;20513;-70
2022/08/22 08:18:18;;;;;;;5.83;4.47;;;24.40;62.60;;;;;;5027129;28;21027;-70
2022/08/22 08:20:50;;;;;;;5.27;4.60;;;24.40;62.30;;;;;;5027023;28;20469;-69
2022/08/22 08:23:18;;;;;;;6.90;5.40;;;24.40;62.00;;;;;;5026139;28;20819;-71
2022/08/22 08:26:06;;;;;;;6.30;5.30;;;24.50;61.80;;;;;;5030857;28;20445;-70
2022/08/22 08:28:38;;;;;;;6.50;5.03;;;24.50;61.80;;;;;;5030284;28;20433;-70
2022/08/22 08:31:15;;;;;;;7.87;4.83;;;24.60;61.80;;;;;;5026487;28;20458;-70
2022/08/22 08:33:44;;;;;;;7.43;5.10;;;24.60;62.30;;;;;;5032895;28;21081;-72
2022/08/22 08:36:22;;;;;;;6.40;5.20;;;24.60;61.90;;;;;;5033065;28;20457;-72
2022/08/22 08:39:17;;;;;;;6.63;5.10;;;24.70;61.70;;;;;;5030239;28;20447;-70
2022/08/22 08:41:42;;;;;;;7.33;4.87;;;24.70;61.50;;;;;;5026575;28;20447;-71
2022/08/22 08:44:36;;;;;;;10.40;5.70;;;24.80;61.50;;;;;;5030454;28;20441;-70
2022/08/22 08:47:11;;;;;;;11.40;4.90;;;24.80;61.60;;;;;;5030064;28;20188;-70
2022/08/22 08:50:00;;;;;;;6.47;5.27;;;24.90;61.60;;;;;;5027996;28;20444;-69
2022/08/22 08:52:41;;;;;;;6.43;5.50;;;25.00;61.10;;;;;;5031378;28;20485;-70
2022/08/22 08:55:29;;;;;;;9.73;5.10;;;25.00;60.90;;;;;;5031672;28;20446;-70
2022/08/22 08:58:19;;;;;;;8.47;5.10;;;25.00;60.70;;;;;;5026452;28;21035;-70
2022/08/22 09:00:55;;;;;;;7.90;5.47;;;25.10;60.60;;;;;;5026704;28;20464;-68
2022/08/22 09:03:32;;;;;;;5.97;5.33;;;25.20;61.00;;;;;;5025707;28;21313;-71
2022/08/22 09:06:39;;;;;;;7.10;5.27;;;25.20;61.00;;;;;;5026415;28;20466;-70
2022/08/22 09:09:36;;;;;;;7.90;6.03;;;25.20;61.20;;;;;;5043322;28;20466;-69
2022/08/22 09:12:13;;;;;;;6.73;5.50;;;25.30;60.90;;;;;;5027463;28;20905;-70
2022/08/22 09:15:06;;;;;;;5.80;4.90;;;25.40;60.80;;;;;;5038423;28;20464;-70
2022/08/22 09:17:50;;;;;;;5.97;5.30;;;25.40;60.50;;;;;;5027226;28;20449;-70
2022/08/22 09:20:22;;;;;;;7.43;5.33;;;25.50;60.20;;;;;;5031192;28;20916;-70
2022/08/22 09:23:07;;;;;;;6.40;4.63;;;25.60;60.00;;;;;;5034881;28;20447;-71
2022/08/22 09:25:50;;;;;;;5.37;4.87;;;25.60;60.10;;;;;;5038408;28;20481;-70
2022/08/22 09:28:32;;;;;;;8.03;5.27;;;25.70;60.30;;;;;;5035664;28;20457;-69
2022/08/22 09:31:00;;;;;;;9.47;4.87;;;25.80;60.00;;;;;;5034353;28;20466;-69
2022/08/22 09:33:54;;;;;;;6.23;4.60;;;25.80;59.80;;;;;;5037755;28;20448;-69
2022/08/22 09:36:49;;;;;;;5.00;4.50;;;25.90;59.80;;;;;;5037560;28;20590;-69
2022/08/22 09:39:27;;;;;;;6.33;4.80;;;25.90;59.80;;;;;;5033004;28;20476;-69
2022/08/22 09:42:39;;;;;;;8.53;5.50;;;26.00;59.80;;;;;;5031014;28;20434;-70
2022/08/22 09:45:53;;;;;;;7.23;4.93;;;26.10;59.80;;;;;;5005795;28;20996;-71
2022/08/22 09:48:34;;;;;;;5.30;4.80;;;26.20;59.80;;;;;;5035406;28;20808;-69
2022/08/22 09:51:28;;;;;;;7.30;4.77;;;26.30;59.50;;;;;;5040119;28;20459;-71
2022/08/22 09:54:10;;;;;;;6.10;5.00;;;26.40;59.20;;;;;;5032208;28;20430;-70
2022/08/22 09:57:00;;;;;;;6.33;4.97;;;26.50;59.00;;;;;;5031106;28;20481;-70
2022/08/22 09:59:41;;;;;;;6.40;5.37;;;26.50;58.80;;;;;;5031188;28;20434;-70
2022/08/22 10:02:25;;;;;;;5.67;5.00;;;26.60;58.70;;;;;;5028943;28;20447;-70
2022/08/22 10:05:02;;;;;;;5.30;4.80;;;26.70;58.50;;;;;;5033950;28;20462;-70
2022/08/22 10:07:54;;;;;;;5.47;4.50;;;26.80;58.40;;;;;;5029178;28;20430;-69
2022/08/22 10:10:46;;;;;;;6.80;5.40;;;26.90;58.30;;;;;;5032472;28;20519;-69
2022/08/22 10:13:45;;;;;;;5.30;4.77;;;27.00;58.10;;;;;;5032746;28;20526;-70
2022/08/22 10:16:37;;;;;;;6.30;5.00;;;27.00;58.00;;;;;;5036082;28;21025;-70
2022/08/22 10:19:32;;;;;;;7.77;6.00;;;27.10;57.80;;;;;;5034279;28;20944;-70
2022/08/22 10:22:25;;;;;;;6.53;4.80;;;27.20;57.50;;;;;;5035775;28;21193;-69
2022/08/22 10:25:02;;;;;;;6.07;5.20;;;27.30;56.30;;;;;;5035972;28;20536;-69
2022/08/22 10:27:41;;;;;;;6.80;5.50;;;27.40;55.50;;;;;;5034924;28;20422;-69
2022/08/22 10:30:09;;;;;;;5.30;4.80;;;27.40;55.70;;;;;;5028472;28;20530;-69
2022/08/22 10:32:46;;;;;;;6.57;5.27;;;27.50;55.90;;;;;;5025007;28;20469;-69
2022/08/22 10:35:28;;;;;;;6.47;5.87;;;27.50;56.00;;;;;;5024423;28;20468;-70
2022/08/22 10:38:13;;;;;;;6.83;5.10;;;27.60;55.70;;;;;;5029766;28;20480;-70
2022/08/22 10:41:12;;;;;;;7.03;5.60;;;27.70;55.10;;;;;;5028183;28;20426;-69
2022/08/22 10:43:51;;;;;;;5.10;4.60;;;27.70;54.20;;;;;;5030690;28;20446;-68
2022/08/22 10:46:33;;;;;;;6.27;5.70;;;27.80;54.20;;;;;;5029500;28;20466;-70
2022/08/22 10:49:02;;;;;;;6.20;4.80;;;27.90;54.20;;;;;;5025722;28;20434;-70
2022/08/22 10:51:43;;;;;;;5.90;4.47;;;27.90;54.20;;;;;;5031117;28;20532;-70
2022/08/22 10:54:22;;;;;;;6.90;5.97;;;28.00;53.80;;;;;;5032925;28;20882;-70
2022/08/22 10:57:03;;;;;;;6.07;4.90;;;28.10;53.70;;;;;;5018706;28;20439;-70
2022/08/22 10:59:47;;;;;;;9.87;4.37;;;28.20;53.40;;;;;;5024433;28;21118;-70
2022/08/22 11:02:15;;;;;;;7.50;4.77;;;28.30;52.90;;;;;;5018798;28;20442;-69
2022/08/22 11:05:12;;;;;;;4.87;4.47;;;28.40;53.00;;;;;;5020557;28;20469;-70
2022/08/22 11:07:41;;;;;;;6.00;5.37;;;28.50;52.90;;;;;;5025032;28;20439;-69
2022/08/22 11:10:16;;;;;;;4.73;4.30;;;28.50;52.50;;;;;;5020918;28;20450;-70
2022/08/22 11:12:52;;;;;;;7.10;4.90;;;28.60;52.10;;;;;;5022498;28;20501;-70
2022/08/22 11:15:53;;;;;;;4.90;4.40;;;28.60;52.20;;;;;;5022956;28;21829;-70
2022/08/22 11:18:33;;;;;;;6.53;4.97;;;28.70;51.20;;;;;;5021876;28;20438;-70
2022/08/22 11:21:17;;;;;;;5.00;4.60;;;28.80;50.40;;;;;;5026515;28;20431;-70
2022/08/22 11:23:47;;;;;;;5.90;5.40;;;28.90;50.50;;;;;;5033679;28;20430;-70
2022/08/22 11:26:22;;;;;;;6.63;5.23;;;29.00;50.80;;;;;;5030668;28;20926;-70
2022/08/22 11:29:06;;;;;;;6.67;4.67;;;29.10;50.20;;;;;;5027377;28;20937;-72
2022/08/22 11:31:56;;;;;;;5.57;5.00;;;29.20;49.70;;;;;;5028775;28;20491;-73
2022/08/22 11:34:34;;;;;;;6.23;5.03;;;29.20;49.70;;;;;;5033888;28;20460;-71
2022/08/22 11:37:22;;;;;;;5.60;5.10;;;29.40;49.40;;;;;;5031181;28;21014;-73
2022/08/22 11:40:03;;;;;;;5.10;4.60;;;29.70;49.50;;;;;;5036984;28;20481;-68
2022/08/22 11:42:46;;;;;;;5.63;4.73;;;29.90;49.70;;;;;;5026514;28;20433;-69
2022/08/22 11:45:21;;;;;;;6.37;5.13;;;30.10;48.90;;;;;;5033222;28;20437;-69
2022/08/22 11:48:15;;;;;;;6.23;4.23;;;30.30;48.40;;;;;;5031541;28;20437;-69
2022/08/22 11:51:05;;;;;;;5.13;4.63;;;30.60;47.90;;;;;;5033011;28;20434;-69
2022/08/22 11:53:40;;;;;;;5.93;4.80;;;30.90;47.50;;;;;;5029799;28;20435;-69
2022/08/22 11:56:09;;;;;;;5.70;4.73;;;30.80;46.10;;;;;;5028839;28;20449;-69
2022/08/22 11:58:51;;;;;;;6.77;5.00;;;30.90;45.70;;;;;;5030039;28;20401;-69
2022/08/22 12:01:23;;;;;;;5.87;4.90;;;30.70;45.10;;;;;;5023897;28;20434;-69
2022/08/22 12:03:59;;;;;;;5.07;4.57;;;30.50;45.30;;;;;;5029404;28;20431;-69
2022/08/22 12:06:54;;;;;;;9.50;4.40;;;30.60;45.30;;;;;;5031681;28;20465;-68
2022/08/22 12:09:27;;;;;;;6.50;4.73;;;30.60;45.40;;;;;;5031018;28;20553;-69
2022/08/22 12:12:16;;;;;;;4.67;4.27;;;32.00;45.30;;;;;;5028823;28;21226;-70
2022/08/22 12:14:42;;;;;;;7.37;4.97;;;33.30;43.50;;;;;;5029321;28;20529;-69
2022/08/22 12:17:31;;;;;;;4.50;4.20;;;34.60;42.50;;;;;;5025722;28;20549;-69
2022/08/22 12:20:18;;;;;;;7.23;5.50;;;35.50;40.80;;;;;;5024765;28;20350;-69
2022/08/22 12:22:50;;;;;;;6.30;5.10;;;36.10;39.70;;;;;;5023998;28;20434;-69
2022/08/22 12:25:49;;;;;;;5.63;4.67;;;36.40;38.40;;;;;;5024596;28;20478;-69
2022/08/22 12:28:44;;;;;;;8.63;5.07;;;36.70;38.00;;;;;;5029649;28;20507;-69
2022/08/22 12:31:13;;;;;;;6.00;5.10;;;35.70;37.70;;;;;;5026996;28;20975;-70
2022/08/22 12:34:03;;;;;;;4.77;4.27;;;34.90;38.30;;;;;;5030707;28;20528;-70
2022/08/22 12:37:07;;;;;;;4.80;4.40;;;34.30;38.20;;;;;;5030150;28;20424;-70
2022/08/22 12:39:55;;;;;;;5.33;4.83;;;33.70;39.20;;;;;;5029465;28;20420;-70
2022/08/22 12:42:41;;;;;;;4.40;4.00;;;33.10;39.30;;;;;;5024157;28;20431;-69
2022/08/22 12:45:36;;;;;;;9.10;4.40;;;32.70;40.00;;;;;;5032601;28;20457;-70
2022/08/22 12:48:44;;;;;;;4.70;4.30;;;33.40;39.60;;;;;;5026126;28;20481;-70
2022/08/22 12:51:28;;;;;;;5.73;4.70;;;34.30;38.50;;;;;;5032437;28;20440;-69
2022/08/22 12:54:31;;;;;;;4.70;4.30;;;35.40;38.70;;;;;;5032188;28;20970;-70
2022/08/22 12:57:24;;;;;;;6.07;4.50;;;36.20;37.40;;;;;;5021823;28;20414;-69
2022/08/22 12:59:54;;;;;;;6.90;5.33;;;37.10;36.90;;;;;;5025186;28;20437;-69
2022/08/22 13:02:25;;;;;;;6.23;4.80;;;37.70;36.10;;;;;;5031143;28;20584;-69
2022/08/22 13:05:00;;;;;;;5.03;4.50;;;37.80;35.90;;;;;;5030160;28;20494;-69
2022/08/22 13:07:31;;;;;;;5.30;4.80;;;38.40;35.50;;;;;;5023991;28;20478;-68
2022/08/22 13:10:24;;;;;;;5.37;4.83;;;39.10;35.10;;;;;;5024206;28;20487;-68
2022/08/22 13:12:54;;;;;;;6.10;4.30;;;39.60;34.60;;;;;;5024428;28;20474;-69
2022/08/22 13:15:28;;;;;;;5.23;4.83;;;39.80;34.00;;;;;;5030471;28;20461;-69
2022/08/22 13:17:56;;;;;;;8.27;4.97;;;39.90;33.00;;;;;;5027048;28;20439;-68
2022/08/22 13:20:48;;;;;;;4.57;4.17;;;39.40;32.80;;;;;;5026814;28;20435;-69
2022/08/22 13:23:29;;;;;;;5.27;4.67;;;39.50;33.30;;;;;;5025201;28;20442;-69
2022/08/22 13:26:03;;;;;;;4.67;4.27;;;39.80;32.90;;;;;;5026114;28;20503;-71
2022/08/22 13:28:33;;;;;;;7.10;5.13;;;41.00;32.60;;;;;;5033106;28;20449;-70
2022/08/22 13:31:00;;;;;;;5.07;3.87;;;42.60;30.70;;;;;;5034912;28;20418;-70
2022/08/22 13:33:33;;;;;;;4.63;4.23;;;43.20;30.00;;;;;;5030581;28;20462;-68
2022/08/22 13:36:08;;;;;;;4.33;4.03;;;44.70;29.60;;;;;;5031485;28;20897;-70
2022/08/22 13:39:04;;;;;;;3.90;3.60;;;44.80;28.80;;;;;;5028683;28;20429;-71
2022/08/22 13:41:37;;;;;;;4.57;4.17;;;45.30;28.40;;;;;;5031656;28;20442;-71
2022/08/22 13:44:06;;;;;;;4.20;3.90;;;45.80;28.20;;;;;;5026409;28;20430;-71
2022/08/22 13:46:32;;;;;;;3.80;3.50;;;46.20;27.90;;;;;;5026195;28;20497;-70
2022/08/22 13:49:01;;;;;;;4.87;4.40;;;46.50;27.70;;;;;;5025350;28;20468;-70
2022/08/22 13:51:45;;;;;;;7.20;5.60;;;45.70;27.20;;;;;;5029122;28;20459;-71
2022/08/22 13:54:11;;;;;;;6.97;6.37;;;45.20;27.40;;;;;;5032778;28;20549;-70
2022/08/22 13:57:02;;;;;;;5.10;4.10;;;44.60;27.50;;;;;;5025975;28;22262;-69
2022/08/22 13:59:47;;;;;;;4.77;4.27;;;44.40;27.70;;;;;;5030388;28;20180;-70